Time;durP1;ratioP1;P1;durP2;ratioP2;P2;SDS_P1;SDS_P2;PMS_P1;PMS_P2;Temp;Humidity;BMP_temperature;BMP_pressure;BME280_temperature;BME280_humidity;BME280_pressure;Samples;Min_cycle;Max_cycle;Signal;HPM_P1;HPM_P2
2023/12/19 00:02:03;;;;;;;22.77;13.47;;;2.20;99.90;;;;;;5068498;28;20180;-77
2023/12/19 00:04:33;;;;;;;21.90;13.93;;;2.30;99.90;;;;;;5061911;28;20234;-78
2023/12/19 00:06:59;;;;;;;23.30;14.17;;;2.30;99.90;;;;;;5057120;28;20187;-78
2023/12/19 00:09:25;;;;;;;25.27;12.87;;;2.40;99.90;;;;;;5038886;28;20617;-79
2023/12/19 00:11:51;;;;;;;22.57;14.10;;;2.40;99.90;;;;;;5026146;28;20530;-78
2023/12/19 00:14:16;;;;;;;23.00;13.53;;;2.30;99.90;;;;;;5035154;28;20179;-79
2023/12/19 00:16:42;;;;;;;21.93;13.90;;;2.30;99.90;;;;;;5050741;28;20244;-80
2023/12/19 00:19:09;;;;;;;23.70;13.40;;;2.20;99.90;;;;;;5053175;28;20209;-78
2023/12/19 00:21:35;;;;;;;22.37;13.20;;;2.30;99.90;;;;;;5053795;28;20270;-80
2023/12/19 00:24:01;;;;;;;21.90;13.57;;;2.20;99.90;;;;;;5055757;28;20336;-78
2023/12/19 00:26:27;;;;;;;22.93;13.43;;;2.30;99.90;;;;;;5038035;28;20192;-78
2023/12/19 00:28:52;;;;;;;19.27;12.40;;;2.20;99.90;;;;;;5059721;28;20172;-78
2023/12/19 00:31:21;;;;;;;23.60;13.40;;;2.30;99.90;;;;;;5064329;28;20181;-76
2023/12/19 00:33:47;;;;;;;24.37;13.87;;;2.10;99.90;;;;;;5057166;28;20181;-76
2023/12/19 00:36:22;;;;;;;22.13;12.97;;;2.10;99.90;;;;;;5053409;28;20214;-78
2023/12/19 00:38:49;;;;;;;19.93;12.57;;;2.20;99.90;;;;;;5054704;28;20176;-78
2023/12/19 00:41:17;;;;;;;18.77;12.23;;;2.10;99.90;;;;;;5054045;28;20184;-78
2023/12/19 00:43:44;;;;;;;19.30;12.50;;;2.20;99.90;;;;;;5036291;28;20207;-77
2023/12/19 00:46:10;;;;;;;21.03;13.10;;;1.90;99.90;;;;;;5053771;28;20545;-79
2023/12/19 00:48:37;;;;;;;17.70;11.90;;;2.00;99.90;;;;;;5060027;28;20180;-77
2023/12/19 00:51:03;;;;;;;18.53;12.20;;;;;;;;;;5047435;28;20202;-77
2023/12/19 00:53:30;;;;;;;21.73;12.80;;;;;;;;;;5038237;28;20207;-75
2023/12/19 00:55:56;;;;;;;22.47;12.70;;;;;;;;;;5040281;28;20258;-80
2023/12/19 00:58:22;;;;;;;21.00;13.10;;;;;;;;;;5053485;28;20225;-77
2023/12/19 01:00:54;;;;;;;21.10;13.00;;;;;;;;;;5060017;28;20536;-76
2023/12/19 01:03:20;;;;;;;19.13;13.20;;;;;;;;;;5054814;28;20224;-79
2023/12/19 01:05:47;;;;;;;18.40;12.63;;;;;;;;;;5056555;28;20248;-77
2023/12/19 01:08:13;;;;;;;22.03;13.50;;;;;;;;;;5053291;28;20271;-78
2023/12/19 01:10:39;;;;;;;18.60;12.43;;;;;;;;;;5035306;28;20183;-79
2023/12/19 01:13:06;;;;;;;18.67;13.40;;;;;;;;;;5055234;28;20172;-78
2023/12/19 01:15:32;;;;;;;20.33;12.40;;;;;;;;;;5040668;28;20176;-78
2023/12/19 01:17:58;;;;;;;16.87;12.10;;;;;;;;;;5069425;28;20537;-80
2023/12/19 01:20:24;;;;;;;16.90;12.83;;;;;;;;;;5051506;28;20177;-78
2023/12/19 01:22:50;;;;;;;28.23;14.87;;;;;;;;;;5053620;28;20188;-80
2023/12/19 01:25:16;;;;;;;27.17;14.47;;;;;;;;;;5053384;28;20205;-78
2023/12/19 01:27:42;;;;;;;24.13;13.33;;;;;;;;;;5053810;28;20179;-77
2023/12/19 01:30:09;;;;;;;28.53;15.67;;;;;;;;;;5055429;28;20271;-78
2023/12/19 01:32:35;;;;;;;26.60;15.10;;;;;;;;;;5037284;28;20638;-79
2023/12/19 01:35:01;;;;;;;23.83;14.20;;;;;;;;;;5053380;28;20190;-76
2023/12/19 01:37:27;;;;;;;27.20;15.10;;;;;;;;;;5053637;28;20171;-79
2023/12/19 01:39:53;;;;;;;24.27;13.87;;;;;;;;;;5055098;28;20205;-77
2023/12/19 01:42:19;;;;;;;26.90;14.80;;;;;;;;;;5053873;28;20179;-79
2023/12/19 01:45:02;;;;;;;26.33;14.93;;;;;;;;;;5054353;28;20560;-77
2023/12/19 01:47:28;;;;;;;24.47;14.73;;;;;;;;;;5057658;28;20160;-77
2023/12/19 01:49:54;;;;;;;24.40;13.93;;;;;;;;;;5059089;28;20199;-78
2023/12/19 01:52:20;;;;;;;19.93;12.13;;;;;;;;;;5059586;28;20175;-74
2023/12/19 01:54:46;;;;;;;22.20;12.53;;;;;;;;;;5063982;28;20546;-77
2023/12/19 01:57:12;;;;;;;21.03;11.97;;;;;;;;;;5065854;28;20200;-78
2023/12/19 01:59:39;;;;;;;16.47;11.07;;;;;;;;;;5061581;28;20223;-79
2023/12/19 02:02:05;;;;;;;21.23;11.53;;;;;;;;;;5039746;28;20716;-78
2023/12/19 02:04:31;;;;;;;21.10;12.33;;;;;;;;;;5040400;28;20329;-78
2023/12/19 02:06:57;;;;;;;17.07;10.80;;;;;;;;;;5058181;28;20253;-78
2023/12/19 02:09:23;;;;;;;13.20;10.00;;;;;;;;;;5057751;28;20259;-79
2023/12/19 02:11:49;;;;;;;19.57;11.00;;;;;;;;;;5057940;28;20584;-79
2023/12/19 02:14:15;;;;;;;15.00;10.20;;;;;;;;;;5058776;28;20189;-78
2023/12/19 02:16:42;;;;;;;14.23;9.97;;;;;;;;;;5057515;28;20178;-78
2023/12/19 02:19:08;;;;;;;15.23;9.60;;;;;;;;;;5061814;28;20257;-76
2023/12/19 02:21:35;;;;;;;14.23;9.97;;;;;;;;;;5056742;28;20235;-79
2023/12/19 02:24:01;;;;;;;15.93;10.10;;;;;;;;;;5040855;28;20218;-78
2023/12/19 02:26:27;;;;;;;15.93;9.13;;;;;;;;;;5057232;28;20877;-79
2023/12/19 02:28:53;;;;;;;13.07;9.30;;;;;;;;;;5056960;28;20255;-79
2023/12/19 02:31:20;;;;;;;18.93;11.10;;;;;;;;;;5041176;28;20172;-78
2023/12/19 02:33:46;;;;;;;14.80;9.77;;;;;;;;;;5067563;28;20184;-79
2023/12/19 02:36:13;;;;;;;15.90;9.77;;;;;;;;;;5063764;28;20179;-76
2023/12/19 02:38:39;;;;;;;14.03;9.53;;;;;;;;;;5058886;28;20179;-79
2023/12/19 02:41:07;;;;;;;15.90;9.67;;;;;;;;;;5056695;28;20653;-78
2023/12/19 02:43:34;;;;;;;16.17;10.10;;;;;;;;;;5057006;28;20300;-80
2023/12/19 02:46:00;;;;;;;14.27;9.77;;;;;;;;;;5056389;28;20185;-78
2023/12/19 02:48:26;;;;;;;15.67;10.47;;;;;;;;;;5057222;28;20743;-80
2023/12/19 02:50:52;;;;;;;13.07;10.17;;;;;;;;;;5056294;28;20243;-78
2023/12/19 02:53:18;;;;;;;15.83;10.90;;;;;;;;;;5058519;28;20225;-78
2023/12/19 02:55:44;;;;;;;16.33;10.47;;;;;;;;;;5057238;28;20184;-80
2023/12/19 02:58:10;;;;;;;16.27;10.83;;;;;;;;;;5054337;28;20347;-79
2023/12/19 03:00:36;;;;;;;15.63;10.03;;;;;;;;;;5056747;28;20188;-79
2023/12/19 03:03:03;;;;;;;14.50;9.60;;;;;;;;;;5037972;28;20547;-80
2023/12/19 03:05:29;;;;;;;14.87;9.60;;;;;;;;;;5056582;28;20238;-78
2023/12/19 03:07:55;;;;;;;12.03;8.70;;;;;;;;;;5056666;28;20164;-79
2023/12/19 03:10:21;;;;;;;12.43;9.07;;;;;;;;;;5058107;28;20175;-79
2023/12/19 03:12:47;;;;;;;13.43;9.57;;;;;;;;;;5056576;28;20178;-80
2023/12/19 03:15:13;;;;;;;15.37;9.57;;;;;;;;;;5039937;28;20184;-76
2023/12/19 03:17:40;;;;;;;12.23;8.43;;;;;;;;;;5062722;28;20186;-76
2023/12/19 03:20:06;;;;;;;13.93;9.83;;;;;;;;;;5043948;28;20178;-77
2023/12/19 03:22:33;;;;;;;13.37;9.67;;;;;;;;;;5039670;28;20180;-79
2023/12/19 03:25:00;;;;;;;12.97;8.63;;;;;;;;;;5057256;28;20220;-78
2023/12/19 03:27:26;;;;;;;10.97;8.47;;;;;;;;;;5056361;28;20171;-79
2023/12/19 03:29:52;;;;;;;11.67;8.13;;;;;;;;;;5056398;28;20589;-79
2023/12/19 03:32:19;;;;;;;12.90;9.17;;;;;;;;;;5055589;28;20172;-80
2023/12/19 03:34:45;;;;;;;13.07;8.03;;;;;;;;;;5038823;28;20296;-79
2023/12/19 03:37:11;;;;;;;13.40;8.13;;;;;;;;;;5065430;28;20205;-77
2023/12/19 03:39:37;;;;;;;13.10;8.70;;;;;;;;;;5056552;28;20248;-79
2023/12/19 03:42:03;;;;;;;12.77;7.73;;;;;;;;;;5038622;28;20236;-77
2023/12/19 03:44:29;;;;;;;12.47;8.13;;;;;;;;;;5056900;28;20209;-80
2023/12/19 03:46:55;;;;;;;12.70;8.73;;;;;;;;;;5037446;28;20539;-79
2023/12/19 03:49:21;;;;;;;11.53;8.13;;;;;;;;;;5036782;28;20187;-78
2023/12/19 03:51:49;;;;;;;8.93;7.47;;;;;;;;;;5055650;28;20341;-78
2023/12/19 03:54:15;;;;;;;10.20;7.83;;;;;;;;;;5058773;28;20176;-79
2023/12/19 03:56:42;;;;;;;11.17;7.70;;;;;;;;;;5054873;28;20185;-79
2023/12/19 03:59:10;;;;;;;11.33;7.90;;;;;;;;;;5054978;28;20235;-79
2023/12/19 04:01:43;;;;;;;11.97;8.13;;;;;;;;;;5056315;28;20531;-80
2023/12/19 04:04:09;;;;;;;10.40;7.43;;;;;;;;;;5054532;28;20211;-78
2023/12/19 04:06:35;;;;;;;11.40;7.47;;;;;;;;;;5054814;28;20174;-78
2023/12/19 04:09:01;;;;;;;10.07;7.20;;;;;;;;;;5054562;28;20263;-80
2023/12/19 04:11:27;;;;;;;9.63;7.27;;;;;;;;;;5053511;28;20181;-80
2023/12/19 04:13:53;;;;;;;8.43;6.67;;;;;;;;;;5054155;28;20177;-77
2023/12/19 04:16:20;;;;;;;9.10;7.30;;;;;;;;;;5059573;28;20228;-78
2023/12/19 04:18:46;;;;;;;10.20;7.07;;;;;;;;;;5061389;28;20188;-79
2023/12/19 04:21:12;;;;;;;15.23;8.40;;;;;;;;;;5054633;28;20178;-80
2023/12/19 04:23:38;;;;;;;11.13;7.10;;;;;;;;;;5055258;28;20235;-79
2023/12/19 04:26:04;;;;;;;11.67;7.70;;;;;;;;;;5055469;28;20266;-80
2023/12/19 04:28:30;;;;;;;12.07;7.63;;;;;;;;;;5054248;28;20180;-78
2023/12/19 04:30:56;;;;;;;11.53;7.33;;;;;;;;;;5055684;28;20542;-76
2023/12/19 04:33:22;;;;;;;11.07;8.00;;;;;;;;;;5059603;28;20184;-78
2023/12/19 04:35:48;;;;;;;11.73;8.30;;;;;;;;;;5049681;28;20208;-77
2023/12/19 04:38:15;;;;;;;11.63;8.37;;;;;;;;;;5054484;28;20230;-76
2023/12/19 04:40:41;;;;;;;9.03;7.50;;;;;;;;;;5035589;28;20179;-79
2023/12/19 04:43:07;;;;;;;13.07;8.50;;;;;;;;;;5053966;28;20203;-78
2023/12/19 04:45:33;;;;;;;11.60;7.77;;;;;;;;;;5036052;28;20274;-78
2023/12/19 04:47:59;;;;;;;13.20;8.73;;;;;;;;;;5054131;28;20676;-79
2023/12/19 04:50:25;;;;;;;12.60;8.87;;;;;;;;;;5053768;28;20652;-77
2023/12/19 04:52:53;;;;;;;9.70;7.40;;;;;;;;;;5054627;28;20225;-78
2023/12/19 04:55:19;;;;;;;12.47;8.47;;;;;;;;;;5063316;28;20246;-77
2023/12/19 04:57:45;;;;;;;13.13;8.43;;;;;;;;;;5061191;28;20603;-77
2023/12/19 05:00:11;;;;;;;13.07;7.73;;;;;;;;;;5058709;28;20189;-78
2023/12/19 05:02:37;;;;;;;12.70;8.57;;;;;;;;;;5055024;28;20197;-80
2023/12/19 05:05:04;;;;;;;13.47;8.53;;;;;;;;;;5054220;28;20204;-76
2023/12/19 05:07:31;;;;;;;14.63;8.97;;;;;;;;;;5038082;28;20732;-79
2023/12/19 05:09:57;;;;;;;13.50;9.43;;;;;;;;;;5056481;28;20206;-78
2023/12/19 05:12:24;;;;;;;15.30;9.70;;;;;;;;;;5056101;28;20178;-78
2023/12/19 05:14:52;;;;;;;12.93;10.00;;;;;;;;;;5037300;28;20177;-80
2023/12/19 05:17:18;;;;;;;15.13;9.20;;;;;;;;;;5053891;28;20174;-77
2023/12/19 05:19:44;;;;;;;17.67;9.40;;;;;;;;;;5055453;28;20178;-79
2023/12/19 05:22:12;;;;;;;13.67;9.23;;;;;;;;;;5036113;28;20679;-80
2023/12/19 05:24:38;;;;;;;13.13;8.80;;;;;;;;;;5054028;28;20206;-77
2023/12/19 05:27:07;;;;;;;11.83;8.43;;;;;;;;;;5053975;28;20179;-79
2023/12/19 05:29:33;;;;;;;15.07;8.77;;;;;;;;;;5053396;28;20174;-80
2023/12/19 05:31:59;;;;;;;17.60;8.83;;;;;;;;;;5053226;28;20175;-79
2023/12/19 05:34:26;;;;;;;12.20;8.63;;;;;;;;;;5053096;28;20679;-79
2023/12/19 05:36:52;;;;;;;11.80;8.23;;;;;;;;;;5055306;28;20183;-79
2023/12/19 05:39:18;;;;;;;13.27;8.40;;;;;;;;;;5054999;28;20226;-78
2023/12/19 05:41:44;;;;;;;11.27;7.93;;;;;;;;;;5054326;28;20201;-80
2023/12/19 05:44:11;;;;;;;10.00;8.33;;;;;;;;;;5052891;28;20681;-77
2023/12/19 05:46:39;;;;;;;13.90;8.67;;;;;;;;;;5054235;28;20179;-80
2023/12/19 05:49:06;;;;;;;11.20;8.20;;;;;;;;;;5052974;28;20205;-75
2023/12/19 05:51:32;;;;;;;14.73;9.03;;;;;;;;;;5053590;28;20182;-81
2023/12/19 05:54:01;;;;;;;14.73;8.40;;;;;;;;;;5052923;28;20174;-80
2023/12/19 05:56:27;;;;;;;11.63;7.40;;;;;;;;;;5055288;28;20179;-77
2023/12/19 05:58:53;;;;;;;12.30;8.47;;;;;;;;;;5075466;28;20234;-78
2023/12/19 06:01:21;;;;;;;13.53;8.53;;;;;;;;;;5105205;28;20169;-77
2023/12/19 06:03:47;;;;;;;12.63;8.83;;;;;;;;;;5064961;28;20233;-77
2023/12/19 06:06:13;;;;;;;12.90;7.87;;;;;;;;;;5072169;28;20158;-81
2023/12/19 06:08:39;;;;;;;12.40;8.57;;;;;;;;;;5058537;28;20199;-78
2023/12/19 06:11:06;;;;;;;12.80;7.23;;;;;;;;;;5053848;28;20181;-79
2023/12/19 06:13:32;;;;;;;9.43;6.70;;;;;;;;;;5065213;28;20230;-77
2023/12/19 06:15:58;;;;;;;8.80;5.83;;;;;;;;;;5053428;28;20175;-80
2023/12/19 06:18:24;;;;;;;8.27;6.27;;;;;;;;;;5053368;28;20659;-76
2023/12/19 06:20:51;;;;;;;12.23;6.33;;;;;;;;;;5052877;28;20257;-78
2023/12/19 06:23:18;;;;;;;6.83;5.77;;;;;;;;;;5052803;28;20262;-77
2023/12/19 06:25:44;;;;;;;7.90;6.30;;;;;;;;;;5052435;28;20174;-77
2023/12/19 06:28:11;;;;;;;9.07;6.20;;;;;;;;;;5052858;28;20380;-75
2023/12/19 06:30:37;;;;;;;6.70;5.60;;;;;;;;;;5053764;28;20182;-78
2023/12/19 06:33:03;;;;;;;11.37;6.60;;;;;;;;;;5063969;28;20216;-78
2023/12/19 06:35:30;;;;;;;10.87;6.30;;;;;;;;;;5070286;28;20180;-78
2023/12/19 06:37:57;;;;;;;10.70;6.60;;;;;;;;;;5067064;28;20194;-75
2023/12/19 06:40:23;;;;;;;10.27;6.43;;;;;;;;;;5056817;28;20179;-79
2023/12/19 06:42:49;;;;;;;9.20;7.03;;;;;;;;;;5057355;28;20221;-76
2023/12/19 06:45:18;;;;;;;9.20;7.43;;;;;;;;;;5057992;28;20214;-80
2023/12/19 06:47:45;;;;;;;8.63;7.07;;;;;;;;;;5056571;28;20224;-79
2023/12/19 06:50:11;;;;;;;12.70;7.70;;;;;;;;;;5057236;28;20265;-77
2023/12/19 06:52:37;;;;;;;12.20;8.03;;;;;;;;;;5056178;28;20179;-77
2023/12/19 06:55:03;;;;;;;12.00;7.97;;;;;;;;;;5056667;28;20186;-77
2023/12/19 06:57:30;;;;;;;10.73;8.00;;;;;;;;;;5056605;28;20180;-79
2023/12/19 06:59:56;;;;;;;10.73;7.93;;;;;;;;;;5037025;28;20405;-80
2023/12/19 07:02:23;;;;;;;11.97;8.03;;;;;;;;;;5036328;28;20226;-77
2023/12/19 07:04:49;;;;;;;13.53;8.10;;;;;;;;;;5036620;28;20246;-78
2023/12/19 07:07:15;;;;;;;10.60;8.00;;;;;;;;;;5035832;28;20179;-80
2023/12/19 07:09:41;;;;;;;13.97;8.00;;;;;;;;;;5036041;28;20238;-76
2023/12/19 07:12:07;;;;;;;10.87;7.40;;;;;;;;;;5036340;28;20180;-78
2023/12/19 07:14:33;;;;;;;8.90;6.97;;;;;;;;;;5037641;28;20252;-80
2023/12/19 07:17:01;;;;;;;10.90;7.30;;;;;;;;;;5049650;28;20170;-78
2023/12/19 07:19:27;;;;;;;8.70;6.57;;;;;;;;;;5044334;28;20177;-79
2023/12/19 07:21:54;;;;;;;16.57;8.37;;;;;;;;;;5037529;28;20180;-79
2023/12/19 07:24:20;;;;;;;11.33;7.30;;;;;;;;;;5036800;28;20679;-78
2023/12/19 07:26:46;;;;;;;12.30;6.60;;;;;;;;;;5036169;28;20177;-78
2023/12/19 07:29:12;;;;;;;15.23;7.43;;;;;;;;;;5036607;28;20261;-77
2023/12/19 07:31:39;;;;;;;12.97;7.53;;;;;;;;;;5046972;28;20313;-77
2023/12/19 07:34:06;;;;;;;16.57;8.40;;;;;;;;;;5036550;28;20191;-79
2023/12/19 07:36:33;;;;;;;15.67;8.07;;;;;;;;;;5036577;28;20171;-78
2023/12/19 07:38:59;;;;;;;13.17;8.17;;;;;;;;;;5038137;28;20190;-78
2023/12/19 07:41:26;;;;;;;12.50;7.37;;;;;;;;;;5041418;28;20183;-80
2023/12/19 07:43:56;;;;;;;15.67;7.40;;;;;;;;;;5040592;28;20204;-78
2023/12/19 07:46:22;;;;;;;11.20;7.03;;;;;;;;;;5036180;28;20631;-79
2023/12/19 07:48:48;;;;;;;5.73;4.73;;;;;;;;;;5037993;28;20649;-76
2023/12/19 07:51:23;;;;;;;10.67;5.03;;;;;;;;;;5036655;28;20169;-78
2023/12/19 07:53:49;;;;;;;5.03;4.00;;;;;;;;;;5035711;28;20159;-79
2023/12/19 07:56:15;;;;;;;4.90;3.90;;;;;;;;;;5035734;28;20180;-79
2023/12/19 07:58:41;;;;;;;7.80;4.43;;;;;;;;;;5035570;28;20245;-77
2023/12/19 08:01:12;;;;;;;4.93;3.80;;;;;;;;;;5035932;28;20672;-78
2023/12/19 08:03:38;;;;;;;4.63;3.50;;;;;;;;;;5044642;28;20248;-77
2023/12/19 08:06:05;;;;;;;4.37;3.73;;;;;;;;;;5022546;28;20190;-78
2023/12/19 08:08:32;;;;;;;5.97;4.00;;;;;;;;;;5036899;28;20176;-80
2023/12/19 08:10:58;;;;;;;4.97;3.70;;;;;;;;;;5035600;28;20180;-78
2023/12/19 08:13:24;;;;;;;5.40;3.77;;;;;;;;;;5035556;28;20225;-77
2023/12/19 08:15:50;;;;;;;5.63;3.43;;;;;;;;;;5034761;28;20212;-79
2023/12/19 08:18:18;;;;;;;4.37;3.80;;;;;;;;;;5034813;28;20175;-78
2023/12/19 08:20:44;;;;;;;10.00;7.17;;;;;;;;;;5034738;28;20659;-77
2023/12/19 08:23:10;;;;;;;11.60;8.00;;;;;;;;;;5017587;28;20198;-79
2023/12/19 08:25:37;;;;;;;16.60;8.00;;;;;;;;;;5034575;28;20302;-76
2023/12/19 08:28:04;;;;;;;10.93;7.87;;;;;;;;;;5052727;28;20163;-80
2023/12/19 08:30:30;;;;;;;10.57;8.00;;;;;;;;;;5023449;28;20280;-80
2023/12/19 08:32:58;;;;;;;11.70;7.90;;;;;;;;;;5034733;28;20566;-80
2023/12/19 08:35:25;;;;;;;15.80;8.53;;;;;;;;;;5017747;28;20187;-76
2023/12/19 08:37:51;;;;;;;18.87;8.53;;;;;;;;;;5045378;28;20231;-79
2023/12/19 08:40:19;;;;;;;7.90;6.10;;;;;;;;;;5040641;28;20201;-79
2023/12/19 08:42:45;;;;;;;6.27;5.37;;;;;;;;;;5016795;28;20194;-78
2023/12/19 08:45:17;;;;;;;7.67;5.03;;;;;;;;;;5033799;28;20218;-80
2023/12/19 08:47:44;;;;;;;8.47;5.40;;;;;;;;;;5036400;28;20174;-79
2023/12/19 08:50:12;;;;;;;10.60;5.97;;;;;;;;;;5027396;28;20188;-74
2023/12/19 08:52:39;;;;;;;11.57;7.43;;;;;;;;;;5017646;28;20220;-79
2023/12/19 08:55:11;;;;;;;15.67;9.07;;;;;;;;;;5033336;28;20643;-78
2023/12/19 08:57:44;;;;;;;20.20;10.03;;;;;;;;;;5033648;28;20178;-79
2023/12/19 09:00:18;;;;;;;16.90;9.50;;;;;;;;;;5034483;28;20266;-79
2023/12/19 09:02:45;;;;;;;14.67;10.17;;;;;;;;;;5033628;28;20609;-79
2023/12/19 09:05:12;;;;;;;13.50;9.40;;;;;;;;;;5033498;28;20240;-76
2023/12/19 09:07:39;;;;;;;26.30;11.07;;;;;;;;;;5037434;28;20177;-78
2023/12/19 09:10:06;;;;;;;19.57;11.10;;;;;;;;;;5052502;28;20183;-76
2023/12/19 09:12:35;;;;;;;22.10;10.60;;;;;;;;;;5035993;28;20266;-78
2023/12/19 09:15:02;;;;;;;20.67;11.73;;;;;;;;;;5033457;28;20269;-79
2023/12/19 09:17:29;;;;;;;20.13;11.93;;;;;;;;;;5035043;28;20209;-78
2023/12/19 09:19:55;;;;;;;16.97;10.60;;;;;;;;;;5038549;28;20184;-80
2023/12/19 09:22:22;;;;;;;18.50;11.90;;;;;;;;;;5021673;28;20677;-77
2023/12/19 09:24:48;;;;;;;20.43;12.20;;;;;;;;;;5037805;28;20287;-77
2023/12/19 09:27:14;;;;;;;17.63;10.90;;;;;;;;;;5025007;28;20188;-77
2023/12/19 09:29:40;;;;;;;17.10;11.63;;;;;;;;;;5035290;28;20174;-79
2023/12/19 09:32:07;;;;;;;18.27;11.50;;;;;;;;;;5051100;28;20635;-79
2023/12/19 09:34:34;;;;;;;18.30;10.90;;;;;;;;;;5054570;28;20174;-77
2023/12/19 09:37:00;;;;;;;21.17;12.63;;;;;;;;;;5054310;28;20225;-79
2023/12/19 09:39:26;;;;;;;24.23;13.13;;;;;;;;;;5036179;28;20222;-77
2023/12/19 09:41:53;;;;;;;23.93;13.87;;;;;;;;;;5053975;28;20248;-75
2023/12/19 09:44:19;;;;;;;29.53;14.23;;;;;;;;;;5053195;28;20256;-76
2023/12/19 09:46:50;;;;;;;28.20;14.83;;;;;;;;;;5045025;28;20172;-75
2023/12/19 09:49:19;;;;;;;29.80;14.47;;;;;;;;;;5056922;28;20207;-77
2023/12/19 09:51:46;;;;;;;23.73;13.27;;;;;;;;;;5054180;28;20254;-78
2023/12/19 09:54:13;;;;;;;22.20;13.93;;;;;;;;;;5054087;28;20327;-76
2023/12/19 09:56:40;;;;;;;22.30;12.33;;;;;;;;;;5053750;28;20226;-79
2023/12/19 09:59:08;;;;;;;23.87;12.07;;;;;;;;;;5055661;28;20230;-76
2023/12/19 10:01:37;;;;;;;25.40;12.10;;;;;;;;;;5073825;28;20168;-78
2023/12/19 10:04:08;;;;;;;20.10;12.47;;;;;;;;;;5076074;28;20198;-76
2023/12/19 10:06:34;;;;;;;21.10;11.30;;;;;;;;;;5082637;28;20177;-81
2023/12/19 10:09:01;;;;;;;20.20;12.23;;;;;;;;;;5082729;28;20184;-77
2023/12/19 10:11:27;;;;;;;20.43;12.13;;;;;;;;;;5077897;28;20176;-79
2023/12/19 10:14:09;;;;;;;20.57;11.93;;;;;;;;;;5076392;28;20219;-77
2023/12/19 10:16:38;;;;;;;19.23;11.00;;;;;;;;;;5079351;28;20241;-76
2023/12/19 10:19:05;;;;;;;14.27;11.27;;;;;;;;;;5083533;28;20188;-77
2023/12/19 10:21:32;;;;;;;16.70;10.87;;;;;;;;;;5091381;28;20176;-79
2023/12/19 10:24:09;;;;;;;16.27;9.83;;;;;;;;;;5090589;28;20222;-79
2023/12/19 10:26:35;;;;;;;16.90;10.30;;;;;;;;;;5089095;28;20169;-76
2023/12/19 10:29:01;;;;;;;13.73;9.57;;;;;;;;;;5080203;28;20189;-77
2023/12/19 10:31:27;;;;;;;14.10;9.93;;;;;;;;;;5077049;28;20538;-78
2023/12/19 10:33:56;;;;;;;12.70;8.90;;;;;;;;;;5076534;28;20189;-78
2023/12/19 10:36:23;;;;;;;15.33;9.00;;;;;;;;;;5079120;28;20173;-79
2023/12/19 10:38:50;;;;;;;13.20;9.33;;;;;;;;;;5086240;28;20189;-79
2023/12/19 10:41:22;;;;;;;14.60;9.27;;;;;;;;;;5090750;28;20550;-77
2023/12/19 10:43:52;;;;;;;16.97;9.57;;;;;;;;;;5079043;28;20199;-78
2023/12/19 10:46:19;;;;;;;12.63;8.73;;;;;;;;;;5081278;28;20164;-78
2023/12/19 10:48:48;;;;;;;13.33;8.97;;;;;;;;;;5077527;28;20529;-77
2023/12/19 10:51:17;;;;;;;19.20;9.83;;;;;;;;;;5082961;28;20178;-77
2023/12/19 10:53:49;;;;;;;14.83;9.07;;;;;;;;;;5092477;28;20249;-78
2023/12/19 10:56:16;;;;;;;14.60;9.13;;;;;;;;;;5090979;28;20167;-77
2023/12/19 10:58:45;;;;;;;11.87;8.37;;;;;;;;;;5069749;28;20590;-76
2023/12/19 11:01:12;;;;;;;10.93;8.67;;;;;;;;;;5066463;28;20202;-77
2023/12/19 11:03:41;;;;;;;11.47;7.90;;;;;;;;;;5069447;28;20172;-78
2023/12/19 11:06:09;;;;;;;12.37;8.30;;;;;;;;;;5057510;28;20193;-76
2023/12/19 11:08:37;;;;;;;12.03;9.07;;;;;;;;;;5059528;28;20536;-76
2023/12/19 11:11:15;;;;;;;13.27;8.73;;;;;;;;;;5063084;28;20179;-77
2023/12/19 11:13:42;;;;;;;10.93;8.13;;;;;;;;;;5064520;28;20186;-77
2023/12/19 11:16:18;;;;;;;13.83;8.27;;;;;;;;;;5057754;28;20258;-78
2023/12/19 11:18:45;;;;;;;16.67;8.47;;;;;;;;;;5055734;28;20162;-79
2023/12/19 11:21:13;;;;;;;12.57;7.87;;;;;;;;;;5055170;28;20257;-78
2023/12/19 11:23:50;;;;;;;10.77;7.90;;;;;;;;;;5056654;28;20199;-76
2023/12/19 11:26:26;;;;;;;10.60;7.37;;;;;;;;;;5067302;28;20155;-78
2023/12/19 11:28:52;;;;;;;11.20;8.50;;;;;;;;;;5056655;28;20178;-79
2023/12/19 11:31:35;;;;;;;12.47;8.40;;;;;;;;;;5056368;28;20205;-79
2023/12/19 11:34:22;;;;;;;15.90;8.40;;;;;;;;;;5056106;28;20240;-79
2023/12/19 11:37:02;;;;;;;15.00;8.67;;;;;;;;;;5055527;28;20674;-79
2023/12/19 11:39:31;;;;;;;15.10;8.20;;;;;;;;;;5055755;28;20170;-79
2023/12/19 11:41:57;;;;;;;11.83;8.27;;;;;;;;;;5056095;28;20178;-80
2023/12/19 11:44:33;;;;;;;12.63;8.23;;;;;;;;;;5037966;28;20222;-79
2023/12/19 11:47:15;;;;;;;13.13;8.30;;;;;;;;;;5055868;28;20214;-78
2023/12/19 11:49:41;;;;;;;15.27;10.20;;;;;;;;;;5055912;28;20267;-78
2023/12/19 11:52:07;;;;;;;11.07;8.23;;;;;;;;;;5038301;28;20267;-80
2023/12/19 11:54:34;;;;;;;15.63;7.67;;;;;;;;;;5055331;28;20177;-79
2023/12/19 11:57:01;;;;;;;14.60;8.10;;;;;;;;;;5055004;28;20572;-77
2023/12/19 11:59:51;;;;;;;14.17;8.37;;;;;;;;;;5054651;28;20254;-78
2023/12/19 12:02:27;;;;;;;11.87;7.87;;;;;;;;;;5036965;28;20631;-76
2023/12/19 12:05:12;;;;;;;14.67;7.83;;;;;;;;;;5053939;28;20651;-79
2023/12/19 12:07:47;;;;;;;15.77;7.73;;;;;;;;;;5055313;28;20699;-78
2023/12/19 12:10:18;;;;;;;13.20;9.13;;;;;;;;;;5054465;28;20148;-78
2023/12/19 12:12:44;;;;;;;12.70;9.30;;;;;;;;;;5036374;28;20207;-80
2023/12/19 12:15:19;;;;;;;12.40;8.03;;;;;;;;;;5036355;28;20179;-78
2023/12/19 12:17:48;;;;;;;12.10;7.13;;;;;;;;;;5054755;28;20198;-80
2023/12/19 12:20:14;;;;;;;8.27;7.03;;;;;;;;;;5036547;28;20186;-79
2023/12/19 12:22:43;;;;;;;10.27;6.37;;;;;;;;;;5053964;28;20172;-79
2023/12/19 12:25:11;;;;;;;14.03;8.03;;;;;;;;;;5054726;28;20257;-78
2023/12/19 12:27:40;;;;;;;10.07;6.97;;;;;;;;;;5055027;28;20179;-78
2023/12/19 12:30:10;;;;;;;10.20;6.43;;;;;;;;;;5054727;28;20200;-77
2023/12/19 12:32:36;;;;;;;9.93;7.20;;;;;;;;;;5054680;28;20231;-75
2023/12/19 12:35:02;;;;;;;11.53;6.97;;;;;;;;;;5054410;28;20180;-76
2023/12/19 12:37:28;;;;;;;13.20;6.73;;;;;;;;;;5054191;28;20230;-75
2023/12/19 12:40:04;;;;;;;10.50;7.17;;;;;;;;;;5054542;28;20171;-76
2023/12/19 12:42:30;;;;;;;14.67;7.17;;;;;;;;;;5061378;28;20168;-78
2023/12/19 12:45:03;;;;;;;9.33;6.83;;;;;;;;;;5050815;28;20215;-77
2023/12/19 12:47:29;;;;;;;12.10;6.50;;;;;;;;;;5055483;28;20162;-78
2023/12/19 12:50:04;;;;;;;12.17;6.27;;;;;;;;;;5054951;28;20182;-78
2023/12/19 12:52:31;;;;;;;12.30;5.87;;;;;;;;;;5055825;28;20175;-77
2023/12/19 12:55:02;;;;;;;10.73;7.00;;;;;;;;;;5064482;28;20179;-77
2023/12/19 12:57:28;;;;;;;12.23;6.93;;;;;;;;;;5047095;28;20190;-75
2023/12/19 12:59:54;;;;;;;12.53;5.80;;;;;;;;;;5055531;28;20227;-74
2023/12/19 13:02:20;;;;;;;7.00;5.20;;;;;;;;;;5063762;28;20184;-76
2023/12/19 13:04:47;;;;;;;9.07;5.57;;;;;;;;;;5045931;28;20218;-76
2023/12/19 13:07:14;;;;;;;8.80;6.33;;;;;;;;;;5054143;28;20185;-76
2023/12/19 13:09:40;;;;;;;10.87;6.40;;;;;;;;;;5053673;28;20657;-79
2023/12/19 13:12:06;;;;;;;8.27;5.50;;;;;;;;;;5035686;28;20305;-78
2023/12/19 13:14:32;;;;;;;6.73;5.63;;;;;;;;;;5054522;28;20221;-77
2023/12/19 13:16:58;;;;;;;10.83;5.83;;;;;;;;;;5045839;28;20221;-77
2023/12/19 13:19:24;;;;;;;9.77;5.60;;;;;;;;;;5056220;28;20241;-79
2023/12/19 13:21:51;;;;;;;7.13;5.23;;;;;;;;;;5057687;28;20261;-76
2023/12/19 13:24:18;;;;;;;8.07;5.93;;;;;;;;;;5058048;28;20578;-76
2023/12/19 13:26:44;;;;;;;9.60;6.03;;;;;;;;;;5054953;28;20173;-76
2023/12/19 13:29:10;;;;;;;13.50;6.30;;;;;;;;;;5055349;28;20213;-75
2023/12/19 13:31:37;;;;;;;11.47;5.60;;;;;;;;;;5055774;28;20177;-78
2023/12/19 13:34:04;;;;;;;10.50;5.40;;;;;;;;;;5054485;28;20175;-75
2023/12/19 13:36:31;;;;;;;11.10;5.40;;;;;;;;;;5053836;28;20178;-79
2023/12/19 13:38:57;;;;;;;10.17;5.77;;;;;;;;;;5053677;28;20173;-79
2023/12/19 13:41:23;;;;;;;14.87;6.00;;;;;;;;;;5053920;28;20203;-77
2023/12/19 13:43:50;;;;;;;8.57;5.57;;;;;;;;;;5033670;28;20220;-79
2023/12/19 13:46:16;;;;;;;9.77;5.50;;;;;;;;;;5052964;28;20577;-80
2023/12/19 13:48:42;;;;;;;9.17;5.60;;;;;;;;;;5052942;28;20189;-80
2023/12/19 13:51:09;;;;;;;9.60;5.90;;;;;;;;;;5051583;28;20589;-77
2023/12/19 13:53:36;;;;;;;16.97;8.73;;;;;;;;;;5052479;28;20181;-80
2023/12/19 13:56:04;;;;;;;8.23;6.43;;;;;;;;;;5053176;28;20184;-79
2023/12/19 13:58:30;;;;;;;10.70;5.90;;;;;;;;;;5053313;28;20580;-78
2023/12/19 14:00:57;;;;;;;13.77;5.93;;;;;;;;;;5053910;28;20221;-76
2023/12/19 14:03:23;;;;;;;11.07;6.30;;;;;;;;;;5062567;28;20189;-77
2023/12/19 14:05:49;;;;;;;11.33;6.30;;;;;;;;;;5054207;28;20226;-78
2023/12/19 14:08:18;;;;;;;12.90;6.50;;;;;;;;;;5035216;28;20267;-76
2023/12/19 14:10:44;;;;;;;12.00;6.90;;;;;;;;;;5053328;28;20184;-79
2023/12/19 14:13:10;;;;;;;8.50;5.83;;;;;;;;;;5039673;28;20548;-79
2023/12/19 14:15:36;;;;;;;9.17;5.77;;;;;;;;;;5045376;28;20190;-79
2023/12/19 14:18:03;;;;;;;14.43;6.37;;;;;;;;;;5052863;28;20222;-80
2023/12/19 14:20:30;;;;;;;9.33;6.17;;;;;;;;;;5052820;28;20639;-79
2023/12/19 14:22:57;;;;;;;15.13;6.37;;;;;;;;;;5053387;28;20176;-79